sensor_id;sensor_type;location;lat;lon;timestamp;pressure;altitude;pressure_sealevel;temperature
61189;BMP280;47054;39.716;2.904;2022-08-25T00:02:24;100225.09;;;31.83
61189;BMP280;47054;39.716;2.904;2022-08-25T00:05:08;100212.59;;;31.82
61189;BMP280;47054;39.716;2.904;2022-08-25T00:07:53;100214.91;;;31.84
61189;BMP280;47054;39.716;2.904;2022-08-25T00:10:38;100217.16;;;31.85
61189;BMP280;47054;39.716;2.904;2022-08-25T00:13:23;100209.13;;;31.82
61189;BMP280;47054;39.716;2.904;2022-08-25T00:16:13;100216.69;;;31.87
61189;BMP280;47054;39.716;2.904;2022-08-25T00:19:01;100215.94;;;31.86
61189;BMP280;47054;39.716;2.904;2022-08-25T00:21:46;100210.44;;;31.86
61189;BMP280;47054;39.716;2.904;2022-08-25T00:24:31;100214.41;;;31.85
61189;BMP280;47054;39.716;2.904;2022-08-25T00:27:15;100206.19;;;31.85
61189;BMP280;47054;39.716;2.904;2022-08-25T00:30:01;100212.94;;;31.84
61189;BMP280;47054;39.716;2.904;2022-08-25T00:32:45;100214.91;;;31.84
61189;BMP280;47054;39.716;2.904;2022-08-25T00:35:30;100217.66;;;31.84
61189;BMP280;47054;39.716;2.904;2022-08-25T00:38:14;100213.38;;;31.83
61189;BMP280;47054;39.716;2.904;2022-08-25T00:40:59;100208.38;;;31.81
61189;BMP280;47054;39.716;2.904;2022-08-25T00:43:56;100201.63;;;31.82
61189;BMP280;47054;39.716;2.904;2022-08-25T00:46:50;100204.38;;;31.82
61189;BMP280;47054;39.716;2.904;2022-08-25T00:49:39;100202.13;;;31.81
61189;BMP280;47054;39.716;2.904;2022-08-25T00:52:33;100204.13;;;31.80
61189;BMP280;47054;39.716;2.904;2022-08-25T00:55:23;100206.09;;;31.80
61189;BMP280;47054;39.716;2.904;2022-08-25T00:58:12;100210.06;;;31.79
61189;BMP280;47054;39.716;2.904;2022-08-25T01:01:00;100197.56;;;31.78
61189;BMP280;47054;39.716;2.904;2022-08-25T01:03:44;100192.59;;;31.76
61189;BMP280;47054;39.716;2.904;2022-08-25T01:06:31;100179.81;;;31.73
61189;BMP280;47054;39.716;2.904;2022-08-25T01:09:18;100181.63;;;31.76
61189;BMP280;47054;39.716;2.904;2022-08-25T01:12:03;100173.84;;;31.75
61189;BMP280;47054;39.716;2.904;2022-08-25T01:14:48;100160.63;;;31.73
61189;BMP280;47054;39.716;2.904;2022-08-25T01:17:37;100159.38;;;31.74
61189;BMP280;47054;39.716;2.904;2022-08-25T01:20:26;100152.19;;;31.77
61189;BMP280;47054;39.716;2.904;2022-08-25T01:23:11;100146.72;;;31.77
61189;BMP280;47054;39.716;2.904;2022-08-25T01:26:32;100142.28;;;31.79
61189;BMP280;47054;39.716;2.904;2022-08-25T01:29:17;100140.50;;;31.76
61189;BMP280;47054;39.716;2.904;2022-08-25T01:32:07;100143.97;;;31.77
61189;BMP280;47054;39.716;2.904;2022-08-25T01:34:53;100142.00;;;31.77
61189;BMP280;47054;39.716;2.904;2022-08-25T01:37:38;100133.47;;;31.75
61189;BMP280;47054;39.716;2.904;2022-08-25T01:40:23;100131.75;;;31.78
61189;BMP280;47054;39.716;2.904;2022-08-25T01:45:58;100134.50;;;31.78
61189;BMP280;47054;39.716;2.904;2022-08-25T01:48:42;100127.06;;;31.78
61189;BMP280;47054;39.716;2.904;2022-08-25T01:51:29;100130.56;;;31.79
61189;BMP280;47054;39.716;2.904;2022-08-25T01:54:16;100116.84;;;31.79
61189;BMP280;47054;39.716;2.904;2022-08-25T01:57:00;100109.09;;;31.77
61189;BMP280;47054;39.716;2.904;2022-08-25T01:59:45;100109.84;;;31.78
61189;BMP280;47054;39.716;2.904;2022-08-25T02:05:32;100104.34;;;31.78
61189;BMP280;47054;39.716;2.904;2022-08-25T02:08:17;100100.88;;;31.77
61189;BMP280;47054;39.716;2.904;2022-08-25T02:11:01;100111.84;;;31.77
61189;BMP280;47054;39.716;2.904;2022-08-25T02:13:46;100108.34;;;31.77
61189;BMP280;47054;39.716;2.904;2022-08-25T02:16:34;100089.91;;;31.77
61189;BMP280;47054;39.716;2.904;2022-08-25T02:19:21;100088.66;;;31.78
61189;BMP280;47054;39.716;2.904;2022-08-25T02:22:07;100080.91;;;31.77
61189;BMP280;47054;39.716;2.904;2022-08-25T02:24:51;100093.88;;;31.76
61189;BMP280;47054;39.716;2.904;2022-08-25T02:27:37;100093.88;;;31.76
61189;BMP280;47054;39.716;2.904;2022-08-25T02:30:22;100092.66;;;31.77
61189;BMP280;47054;39.716;2.904;2022-08-25T02:33:07;100093.13;;;31.76
61189;BMP280;47054;39.716;2.904;2022-08-25T02:35:56;100091.16;;;31.76
61189;BMP280;47054;39.716;2.904;2022-08-25T02:38:41;100094.84;;;31.73
61189;BMP280;47054;39.716;2.904;2022-08-25T02:41:26;100097.84;;;31.75
61189;BMP280;47054;39.716;2.904;2022-08-25T02:44:11;100091.59;;;31.75
61189;BMP280;47054;39.716;2.904;2022-08-25T02:46:56;100093.56;;;31.74
61189;BMP280;47054;39.716;2.904;2022-08-25T02:49:41;100097.06;;;31.75
61189;BMP280;47054;39.716;2.904;2022-08-25T02:52:25;100103.31;;;31.75
61189;BMP280;47054;39.716;2.904;2022-08-25T02:55:11;100090.56;;;31.72
61189;BMP280;47054;39.716;2.904;2022-08-25T02:57:57;100090.81;;;31.74
61189;BMP280;47054;39.716;2.904;2022-08-25T03:00:42;100087.38;;;31.74
61189;BMP280;47054;39.716;2.904;2022-08-25T03:03:27;100087.38;;;31.74
61189;BMP280;47054;39.716;2.904;2022-08-25T03:06:14;100081.38;;;31.75
61189;BMP280;47054;39.716;2.904;2022-08-25T03:08:59;100080.38;;;31.73
61189;BMP280;47054;39.716;2.904;2022-08-25T03:11:44;100077.13;;;31.74
61189;BMP280;47054;39.716;2.904;2022-08-25T03:14:30;100073.66;;;31.74
61189;BMP280;47054;39.716;2.904;2022-08-25T03:17:14;100073.66;;;31.74
61189;BMP280;47054;39.716;2.904;2022-08-25T03:19:59;100072.91;;;31.73
61189;BMP280;47054;39.716;2.904;2022-08-25T03:22:43;100076.41;;;31.74
61189;BMP280;47054;39.716;2.904;2022-08-25T03:25:28;100072.91;;;31.73
61189;BMP280;47054;39.716;2.904;2022-08-25T03:28:31;100056.63;;;31.70
61189;BMP280;47054;39.716;2.904;2022-08-25T03:31:16;100062.13;;;31.70
61189;BMP280;47054;39.716;2.904;2022-08-25T03:34:02;100059.09;;;31.68
61189;BMP280;47054;39.716;2.904;2022-08-25T03:36:48;100064.56;;;31.68
61189;BMP280;47054;39.716;2.904;2022-08-25T03:39:33;100055.44;;;31.56
61189;BMP280;47054;39.716;2.904;2022-08-25T03:42:18;100078.47;;;31.64
61189;BMP280;47054;39.716;2.904;2022-08-25T03:45:03;100070.75;;;31.63
61189;BMP280;47054;39.716;2.904;2022-08-25T03:47:49;100065.72;;;31.61
61189;BMP280;47054;39.716;2.904;2022-08-25T03:50:34;100062.69;;;31.59
61189;BMP280;47054;39.716;2.904;2022-08-25T03:53:19;100056.94;;;31.57
61189;BMP280;47054;39.716;2.904;2022-08-25T03:56:04;100058.16;;;31.56
61189;BMP280;47054;39.716;2.904;2022-08-25T03:58:48;100057.41;;;31.56
61189;BMP280;47054;39.716;2.904;2022-08-25T04:01:33;100058.66;;;31.55
61189;BMP280;47054;39.716;2.904;2022-08-25T04:04:17;100053.16;;;31.55
61189;BMP280;47054;39.716;2.904;2022-08-25T04:07:01;100051.63;;;31.54
61189;BMP280;47054;39.716;2.904;2022-08-25T04:09:46;100061.84;;;31.53
61189;BMP280;47054;39.716;2.904;2022-08-25T04:12:31;100058.34;;;31.53
61189;BMP280;47054;39.716;2.904;2022-08-25T04:15:15;100049.84;;;31.51
61189;BMP280;47054;39.716;2.904;2022-08-25T04:18:00;100055.31;;;31.51
61189;BMP280;47054;39.716;2.904;2022-08-25T04:20:45;100040.84;;;31.50
61189;BMP280;47054;39.716;2.904;2022-08-25T04:23:31;100051.09;;;31.50
61189;BMP280;47054;39.716;2.904;2022-08-25T04:26:27;100053.06;;;31.49
61189;BMP280;47054;39.716;2.904;2022-08-25T04:29:14;100048.81;;;31.48
61189;BMP280;47054;39.716;2.904;2022-08-25T04:32:00;100030.09;;;31.47
61189;BMP280;47054;39.716;2.904;2022-08-25T04:34:44;100023.88;;;31.46
61189;BMP280;47054;39.716;2.904;2022-08-25T04:37:28;100024.31;;;31.45
61189;BMP280;47054;39.716;2.904;2022-08-25T04:40:13;100022.34;;;31.45
61189;BMP280;47054;39.716;2.904;2022-08-25T04:42:58;100035.28;;;31.45
61189;BMP280;47054;39.716;2.904;2022-08-25T04:45:43;100047.50;;;31.44
61189;BMP280;47054;39.716;2.904;2022-08-25T04:48:27;100057.72;;;31.43
61189;BMP280;47054;39.716;2.904;2022-08-25T04:51:14;100050.22;;;31.44
61189;BMP280;47054;39.716;2.904;2022-08-25T04:54:01;100050.22;;;31.44
61189;BMP280;47054;39.716;2.904;2022-08-25T04:56:47;100049.50;;;31.43
61189;BMP280;47054;39.716;2.904;2022-08-25T04:59:32;100042.47;;;31.42
61189;BMP280;47054;39.716;2.904;2022-08-25T05:02:17;100056.19;;;31.42
61189;BMP280;47054;39.716;2.904;2022-08-25T05:05:02;100064.41;;;31.42
61189;BMP280;47054;39.716;2.904;2022-08-25T05:07:47;100067.34;;;31.39
61189;BMP280;47054;39.716;2.904;2022-08-25T05:10:32;100100.78;;;31.43
61189;BMP280;47054;39.716;2.904;2022-08-25T05:13:17;100102.03;;;31.42
61189;BMP280;47054;39.716;2.904;2022-08-25T05:16:02;100098.88;;;31.34
61189;BMP280;47054;39.716;2.904;2022-08-25T05:18:48;100115.72;;;31.42
61189;BMP280;47054;39.716;2.904;2022-08-25T05:21:34;100098.53;;;31.41
61189;BMP280;47054;39.716;2.904;2022-08-25T05:24:19;100102.97;;;31.39
61189;BMP280;47054;39.716;2.904;2022-08-25T05:27:04;100125.94;;;31.41
61189;BMP280;47054;39.716;2.904;2022-08-25T05:29:49;100132.63;;;31.40
61189;BMP280;47054;39.716;2.904;2022-08-25T05:32:34;100144.81;;;31.39
61189;BMP280;47054;39.716;2.904;2022-08-25T05:35:19;100139.34;;;31.39
61189;BMP280;47054;39.716;2.904;2022-08-25T05:38:04;100142.06;;;31.39
61189;BMP280;47054;39.716;2.904;2022-08-25T05:40:56;100149.22;;;31.37
61189;BMP280;47054;39.716;2.904;2022-08-25T05:43:43;100153.50;;;31.38
61189;BMP280;47054;39.716;2.904;2022-08-25T05:46:28;100145.78;;;31.36
61189;BMP280;47054;39.716;2.904;2022-08-25T05:49:12;100153.25;;;31.36
61189;BMP280;47054;39.716;2.904;2022-08-25T05:51:57;100165.56;;;31.31
61189;BMP280;47054;39.716;2.904;2022-08-25T05:54:42;100161.91;;;31.34
61189;BMP280;47054;39.716;2.904;2022-08-25T05:57:26;100152.19;;;31.33
61189;BMP280;47054;39.716;2.904;2022-08-25T06:00:11;100160.09;;;31.31
61189;BMP280;47054;39.716;2.904;2022-08-25T06:02:56;100158.13;;;31.32
61189;BMP280;47054;39.716;2.904;2022-08-25T06:05:41;100163.59;;;31.32
61189;BMP280;47054;39.716;2.904;2022-08-25T06:08:25;100160.88;;;31.32
61189;BMP280;47054;39.716;2.904;2022-08-25T06:11:15;100162.84;;;31.31
61189;BMP280;47054;39.716;2.904;2022-08-25T06:14:00;100178.53;;;31.31
61189;BMP280;47054;39.716;2.904;2022-08-25T06:16:45;100170.31;;;31.31
61189;BMP280;47054;39.716;2.904;2022-08-25T06:19:32;100175.03;;;31.30
61189;BMP280;47054;39.716;2.904;2022-08-25T06:22:17;100171.53;;;31.30
61189;BMP280;47054;39.716;2.904;2022-08-25T06:25:02;100170.31;;;31.31
61189;BMP280;47054;39.716;2.904;2022-08-25T06:27:48;100187.50;;;31.31
61189;BMP280;47054;39.716;2.904;2022-08-25T06:30:32;100178.53;;;31.31
61189;BMP280;47054;39.716;2.904;2022-08-25T06:33:17;100175.03;;;31.30
61189;BMP280;47054;39.716;2.904;2022-08-25T06:36:02;100187.50;;;31.31
61189;BMP280;47054;39.716;2.904;2022-08-25T06:38:47;100179.28;;;31.31
61189;BMP280;47054;39.716;2.904;2022-08-25T06:41:31;100182.03;;;31.31
61189;BMP280;47054;39.716;2.904;2022-08-25T06:44:16;100178.53;;;31.31
61189;BMP280;47054;39.716;2.904;2022-08-25T06:47:00;100187.50;;;31.31
61189;BMP280;47054;39.716;2.904;2022-08-25T06:49:45;100195.72;;;31.31
61189;BMP280;47054;39.716;2.904;2022-08-25T06:52:30;100200.75;;;31.33
61189;BMP280;47054;39.716;2.904;2022-08-25T06:55:15;100200.75;;;31.33
61189;BMP280;47054;39.716;2.904;2022-08-25T06:58:02;100191.47;;;31.30
61189;BMP280;47054;39.716;2.904;2022-08-25T07:00:46;100194.78;;;31.34
61189;BMP280;47054;39.716;2.904;2022-08-25T07:03:31;100191.31;;;31.34
61189;BMP280;47054;39.716;2.904;2022-08-25T07:06:16;100193.28;;;31.33
61189;BMP280;47054;39.716;2.904;2022-08-25T07:09:06;100187.31;;;31.35
61189;BMP280;47054;39.716;2.904;2022-08-25T07:11:51;100185.34;;;31.35
61189;BMP280;47054;39.716;2.904;2022-08-25T07:14:35;100186.56;;;31.34
61189;BMP280;47054;39.716;2.904;2022-08-25T07:17:20;100190.84;;;31.35
61189;BMP280;47054;39.716;2.904;2022-08-25T07:20:07;100195.09;;;31.36
61189;BMP280;47054;39.716;2.904;2022-08-25T07:22:52;100186.13;;;31.36
61189;BMP280;47054;39.716;2.904;2022-08-25T07:25:37;100196.56;;;31.37
61189;BMP280;47054;39.716;2.904;2022-08-25T07:28:22;100189.91;;;31.38
61189;BMP280;47054;39.716;2.904;2022-08-25T07:31:06;100194.13;;;31.39
61189;BMP280;47054;39.716;2.904;2022-08-25T07:34:09;100187.72;;;31.42
61189;BMP280;47054;39.716;2.904;2022-08-25T07:37:11;100192.91;;;31.40
61189;BMP280;47054;39.716;2.904;2022-08-25T07:39:56;100186.69;;;31.40
61189;BMP280;47054;39.716;2.904;2022-08-25T07:42:43;100183.47;;;31.41
61189;BMP280;47054;39.716;2.904;2022-08-25T07:45:30;100174.78;;;31.43
61189;BMP280;47054;39.716;2.904;2022-08-25T07:48:16;100180.25;;;31.43
61189;BMP280;47054;39.716;2.904;2022-08-25T07:51:08;100180.53;;;31.45
61189;BMP280;47054;39.716;2.904;2022-08-25T07:53:52;100170.06;;;31.43
61189;BMP280;47054;39.716;2.904;2022-08-25T07:56:38;100170.81;;;31.44
61189;BMP280;47054;39.716;2.904;2022-08-25T07:59:24;100173.53;;;31.44
61189;BMP280;47054;39.716;2.904;2022-08-25T08:02:13;100172.31;;;31.45
61189;BMP280;47054;39.716;2.904;2022-08-25T08:04:58;100175.53;;;31.43
61189;BMP280;47054;39.716;2.904;2022-08-25T08:07:43;100171.56;;;31.44
61189;BMP280;47054;39.716;2.904;2022-08-25T08:10:27;100171.56;;;31.44
61189;BMP280;47054;39.716;2.904;2022-08-25T08:13:14;100180.53;;;31.45
61189;BMP280;47054;39.716;2.904;2022-08-25T08:15:58;100177.06;;;31.44
61189;BMP280;47054;39.716;2.904;2022-08-25T08:18:43;100179.03;;;31.44
61189;BMP280;47054;39.716;2.904;2022-08-25T08:21:31;100186.31;;;31.47
61189;BMP280;47054;39.716;2.904;2022-08-25T08:24:16;100184.03;;;31.45
61189;BMP280;47054;39.716;2.904;2022-08-25T08:27:00;100191.06;;;31.46
61189;BMP280;47054;39.716;2.904;2022-08-25T08:29:46;100192.25;;;31.45
61189;BMP280;47054;39.716;2.904;2022-08-25T08:32:31;100179.31;;;31.46
61189;BMP280;47054;39.716;2.904;2022-08-25T08:35:16;100187.03;;;31.47
61189;BMP280;47054;39.716;2.904;2022-08-25T08:38:02;100195.25;;;31.47
61189;BMP280;47054;39.716;2.904;2022-08-25T08:47:19;100200.75;;;31.47
61189;BMP280;47054;39.716;2.904;2022-08-25T08:50:29;100202.28;;;31.48
61189;BMP280;47054;39.716;2.904;2022-08-25T08:53:22;100194.53;;;31.47
61189;BMP280;47054;39.716;2.904;2022-08-25T08:56:15;100193.78;;;31.46
61189;BMP280;47054;39.716;2.904;2022-08-25T08:59:24;100188.56;;;31.48
61189;BMP280;47054;39.716;2.904;2022-08-25T09:02:25;100190.56;;;31.48
61189;BMP280;47054;39.716;2.904;2022-08-25T09:05:12;100194.53;;;31.47
61189;BMP280;47054;39.716;2.904;2022-08-25T09:08:06;100201.50;;;31.48
61189;BMP280;47054;39.716;2.904;2022-08-25T09:14:10;100220.69;;;31.48
61189;BMP280;47054;39.716;2.904;2022-08-25T09:26:42;100196.34;;;31.50
61189;BMP280;47054;39.716;2.904;2022-08-25T09:29:41;100195.84;;;31.51
61189;BMP280;47054;39.716;2.904;2022-08-25T09:32:34;100197.84;;;31.51
61189;BMP280;47054;39.716;2.904;2022-08-25T09:35:23;100191.16;;;31.52
61189;BMP280;47054;39.716;2.904;2022-08-25T09:38:11;100193.88;;;31.52
61189;BMP280;47054;39.716;2.904;2022-08-25T09:40:58;100188.66;;;31.54
61189;BMP280;47054;39.716;2.904;2022-08-25T09:43:51;100194.91;;;31.54
61189;BMP280;47054;39.716;2.904;2022-08-25T09:46:36;100188.66;;;31.54
61189;BMP280;47054;39.716;2.904;2022-08-25T09:49:31;100182.28;;;31.57
61189;BMP280;47054;39.716;2.904;2022-08-25T09:52:29;100187.75;;;31.57
61189;BMP280;47054;39.716;2.904;2022-08-25T09:55:30;100181.78;;;31.58
61189;BMP280;47054;39.716;2.904;2022-08-25T09:58:21;100180.28;;;31.57
61189;BMP280;47054;39.716;2.904;2022-08-25T10:03:59;100185.75;;;31.57
61189;BMP280;47054;39.716;2.904;2022-08-25T10:06:46;100195.03;;;31.60
61189;BMP280;47054;39.716;2.904;2022-08-25T10:09:36;100190.31;;;31.60
61189;BMP280;47054;39.716;2.904;2022-08-25T10:12:38;100192.28;;;31.60
61189;BMP280;47054;39.716;2.904;2022-08-25T10:15:26;100187.59;;;31.60
61189;BMP280;47054;39.716;2.904;2022-08-25T10:18:23;100190.59;;;31.62
61189;BMP280;47054;39.716;2.904;2022-08-25T10:21:11;100187.09;;;31.62
61189;BMP280;47054;39.716;2.904;2022-08-25T10:23:58;100196.84;;;31.63
61189;BMP280;47054;39.716;2.904;2022-08-25T10:27:03;100178.28;;;31.58
61189;BMP280;47054;39.716;2.904;2022-08-25T10:30:34;100189.16;;;31.67
61189;BMP280;47054;39.716;2.904;2022-08-25T10:33:42;100190.41;;;31.66
61189;BMP280;47054;39.716;2.904;2022-08-25T10:36:41;100192.38;;;31.65
61189;BMP280;47054;39.716;2.904;2022-08-25T10:42:31;100186.44;;;31.67
61189;BMP280;47054;39.716;2.904;2022-08-25T10:45:22;100179.72;;;31.68
61189;BMP280;47054;39.716;2.904;2022-08-25T10:48:51;100180.00;;;31.70
61189;BMP280;47054;39.716;2.904;2022-08-25T10:52:04;100171.78;;;31.70
61189;BMP280;47054;39.716;2.904;2022-08-25T10:55:12;100171.78;;;31.70
61189;BMP280;47054;39.716;2.904;2022-08-25T10:58:23;100156.09;;;31.70
61189;BMP280;47054;39.716;2.904;2022-08-25T11:01:32;100154.84;;;31.71
61189;BMP280;47054;39.716;2.904;2022-08-25T11:07:09;100152.84;;;31.72
61189;BMP280;47054;39.716;2.904;2022-08-25T11:10:02;100138.69;;;31.73
61189;BMP280;47054;39.716;2.904;2022-08-25T11:12:50;100146.16;;;31.73
61189;BMP280;47054;39.716;2.904;2022-08-25T11:15:50;100146.94;;;31.73
61189;BMP280;47054;39.716;2.904;2022-08-25T11:18:45;100129.97;;;31.75
61189;BMP280;47054;39.716;2.904;2022-08-25T11:22:55;100149.28;;;31.80
61189;BMP280;47054;39.716;2.904;2022-08-25T11:25:32;100138.78;;;31.79
61189;BMP280;47054;39.716;2.904;2022-08-25T11:31:24;100142.28;;;31.79
61189;BMP280;47054;39.716;2.904;2022-08-25T11:34:11;100127.59;;;31.82
61189;BMP280;47054;39.716;2.904;2022-08-25T11:37:04;100121.38;;;31.82
61189;BMP280;47054;39.716;2.904;2022-08-25T11:43:04;100100.41;;;31.79
61189;BMP280;47054;39.716;2.904;2022-08-25T12:01:08;100081.38;;;31.90
61189;BMP280;47054;39.716;2.904;2022-08-25T12:07:18;100103.88;;;31.94
61189;BMP280;47054;39.716;2.904;2022-08-25T12:10:08;100107.09;;;31.92
61189;BMP280;47054;39.716;2.904;2022-08-25T12:13:03;100113.81;;;31.91
61189;BMP280;47054;39.716;2.904;2022-08-25T12:18:38;100121.34;;;31.96
61189;BMP280;47054;39.716;2.904;2022-08-25T12:21:31;100116.63;;;31.97
61189;BMP280;47054;39.716;2.904;2022-08-25T12:24:21;100118.91;;;31.98
61189;BMP280;47054;39.716;2.904;2022-08-25T12:27:10;100112.34;;;31.96
61189;BMP280;47054;39.716;2.904;2022-08-25T12:35:54;100130.22;;;32.06
61189;BMP280;47054;39.716;2.904;2022-08-25T12:38:49;100117.25;;;32.06
61189;BMP280;47054;39.716;2.904;2022-08-25T12:41:55;100120.75;;;32.07
61189;BMP280;47054;39.716;2.904;2022-08-25T12:47:29;100127.78;;;32.08
61189;BMP280;47054;39.716;2.904;2022-08-25T12:50:37;100118.59;;;32.11
61189;BMP280;47054;39.716;2.904;2022-08-25T12:53:43;100123.59;;;32.12
61189;BMP280;47054;39.716;2.904;2022-08-25T12:56:33;100104.38;;;32.12
61189;BMP280;47054;39.716;2.904;2022-08-25T12:59:23;100103.16;;;32.13
61189;BMP280;47054;39.716;2.904;2022-08-25T13:11:39;100038.63;;;32.18
61189;BMP280;47054;39.716;2.904;2022-08-25T13:14:40;100033.41;;;32.20
61189;BMP280;47054;39.716;2.904;2022-08-25T13:17:34;100018.91;;;32.19
61189;BMP280;47054;39.716;2.904;2022-08-25T13:20:24;100034.16;;;32.20
61189;BMP280;47054;39.716;2.904;2022-08-25T13:23:10;100031.72;;;32.22
61189;BMP280;47054;39.716;2.904;2022-08-25T13:25:56;100027.72;;;32.23
61189;BMP280;47054;39.716;2.904;2022-08-25T13:28:41;100011.00;;;32.21
61189;BMP280;47054;39.716;2.904;2022-08-25T13:31:27;100010.00;;;32.24
61189;BMP280;47054;39.716;2.904;2022-08-25T13:34:17;100009.06;;;32.27
61189;BMP280;47054;39.716;2.904;2022-08-25T13:37:06;100005.84;;;32.29
61189;BMP280;47054;39.716;2.904;2022-08-25T13:40:11;100008.59;;;32.29
61189;BMP280;47054;39.716;2.904;2022-08-25T13:43:05;100012.38;;;32.31
61189;BMP280;47054;39.716;2.904;2022-08-25T13:45:49;100018.06;;;32.28
61189;BMP280;47054;39.716;2.904;2022-08-25T13:48:37;100042.81;;;32.33
61189;BMP280;47054;39.716;2.904;2022-08-25T13:51:26;100050.03;;;32.31
61189;BMP280;47054;39.716;2.904;2022-08-25T13:54:26;100078.28;;;32.37
61189;BMP280;47054;39.716;2.904;2022-08-25T13:57:23;100059.28;;;32.33
61189;BMP280;47054;39.716;2.904;2022-08-25T14:00:09;100071.00;;;32.34
61189;BMP280;47054;39.716;2.904;2022-08-25T14:02:55;100070.78;;;32.37
61189;BMP280;47054;39.716;2.904;2022-08-25T14:05:42;100064.09;;;32.38
61189;BMP280;47054;39.716;2.904;2022-08-25T14:08:37;100067.84;;;32.41
61189;BMP280;47054;39.716;2.904;2022-08-25T14:11:33;100060.13;;;32.39
61189;BMP280;47054;39.716;2.904;2022-08-25T14:17:08;100075.63;;;32.42
61189;BMP280;47054;39.716;2.904;2022-08-25T14:19:53;100086.63;;;32.42
61189;BMP280;47054;39.716;2.904;2022-08-25T14:22:38;100097.59;;;32.42
61189;BMP280;47054;39.716;2.904;2022-08-25T14:25:23;100090.09;;;32.43
61189;BMP280;47054;39.716;2.904;2022-08-25T14:28:18;100078.63;;;32.44
61189;BMP280;47054;39.716;2.904;2022-08-25T14:31:05;100070.88;;;32.43
61189;BMP280;47054;39.716;2.904;2022-08-25T14:33:54;100060.63;;;32.43
61189;BMP280;47054;39.716;2.904;2022-08-25T14:36:40;100069.63;;;32.44
61189;BMP280;47054;39.716;2.904;2022-08-25T14:39:26;100067.84;;;32.41
61189;BMP280;47054;39.716;2.904;2022-08-25T14:42:12;100088.84;;;32.44
61189;BMP280;47054;39.716;2.904;2022-08-25T14:44:57;100097.09;;;32.44
61189;BMP280;47054;39.716;2.904;2022-08-25T14:47:43;100097.38;;;32.46
61189;BMP280;47054;39.716;2.904;2022-08-25T14:50:29;100096.59;;;32.45
61189;BMP280;47054;39.716;2.904;2022-08-25T14:53:14;100092.66;;;32.46
61189;BMP280;47054;39.716;2.904;2022-08-25T14:55:59;100085.16;;;32.47
61189;BMP280;47054;39.716;2.904;2022-08-25T14:58:43;100069.63;;;32.44
61189;BMP280;47054;39.716;2.904;2022-08-25T15:01:28;100074.16;;;32.47
61189;BMP280;47054;39.716;2.904;2022-08-25T15:04:15;100072.91;;;32.48
61189;BMP280;47054;39.716;2.904;2022-08-25T15:07:01;100061.69;;;32.46
61189;BMP280;47054;39.716;2.904;2022-08-25T15:10:06;100043.34;;;32.37
61189;BMP280;47054;39.716;2.904;2022-08-25T15:12:51;100056.44;;;32.48
61189;BMP280;47054;39.716;2.904;2022-08-25T15:15:38;100049.25;;;32.50
61189;BMP280;47054;39.716;2.904;2022-08-25T15:18:23;100061.50;;;32.49
61189;BMP280;47054;39.716;2.904;2022-08-25T15:21:08;100057.47;;;32.50
61189;BMP280;47054;39.716;2.904;2022-08-25T15:23:53;100067.22;;;32.51
61189;BMP280;47054;39.716;2.904;2022-08-25T15:26:49;100068.44;;;32.50
61189;BMP280;47054;39.716;2.904;2022-08-25T15:29:35;100075.22;;;32.49
61189;BMP280;47054;39.716;2.904;2022-08-25T15:32:20;100071.69;;;32.49
61189;BMP280;47054;39.716;2.904;2022-08-25T15:35:05;100077.69;;;32.47
61189;BMP280;47054;39.716;2.904;2022-08-25T15:37:50;100079.66;;;32.47
61189;BMP280;47054;39.716;2.904;2022-08-25T15:40:34;100078.91;;;32.46
61189;BMP280;47054;39.716;2.904;2022-08-25T15:43:22;100082.16;;;32.45
61189;BMP280;47054;39.716;2.904;2022-08-25T15:46:06;100076.09;;;32.41
61189;BMP280;47054;39.716;2.904;2022-08-25T15:48:51;100075.13;;;32.44
61189;BMP280;47054;39.716;2.904;2022-08-25T15:51:35;100059.16;;;32.42
61189;BMP280;47054;39.716;2.904;2022-08-25T15:54:24;100057.44;;;32.45
61189;BMP280;47054;39.716;2.904;2022-08-25T15:57:10;100067.41;;;32.42
61189;BMP280;47054;39.716;2.904;2022-08-25T15:59:54;100072.13;;;32.42
61189;BMP280;47054;39.716;2.904;2022-08-25T16:02:39;100089.81;;;32.41
61189;BMP280;47054;39.716;2.904;2022-08-25T16:05:23;100098.31;;;32.43
61189;BMP280;47054;39.716;2.904;2022-08-25T16:08:08;100112.53;;;32.41
61189;BMP280;47054;39.716;2.904;2022-08-25T16:10:53;100105.81;;;32.42
61189;BMP280;47054;39.716;2.904;2022-08-25T16:13:38;100105.81;;;32.42
61189;BMP280;47054;39.716;2.904;2022-08-25T16:16:26;100093.56;;;32.43
61189;BMP280;47054;39.716;2.904;2022-08-25T16:19:11;100099.28;;;32.40
61189;BMP280;47054;39.716;2.904;2022-08-25T16:21:59;100100.78;;;32.41
61189;BMP280;47054;39.716;2.904;2022-08-25T16:24:44;100107.53;;;32.40
61189;BMP280;47054;39.716;2.904;2022-08-25T16:27:29;100100.53;;;32.39
61189;BMP280;47054;39.716;2.904;2022-08-25T16:30:14;100088.78;;;32.38
61189;BMP280;47054;39.716;2.904;2022-08-25T16:32:58;100088.03;;;32.38
61189;BMP280;47054;39.716;2.904;2022-08-25T16:35:44;100080.56;;;32.38
61189;BMP280;47054;39.716;2.904;2022-08-25T16:38:28;100083.78;;;32.37
61189;BMP280;47054;39.716;2.904;2022-08-25T16:41:16;100087.25;;;32.37
61189;BMP280;47054;39.716;2.904;2022-08-25T16:44:05;100075.53;;;32.37
61189;BMP280;47054;39.716;2.904;2022-08-25T16:46:53;100075.72;;;32.33
61189;BMP280;47054;39.716;2.904;2022-08-25T16:49:38;100074.47;;;32.29
61189;BMP280;47054;39.716;2.904;2022-08-25T16:52:23;100079.00;;;32.32
61189;BMP280;47054;39.716;2.904;2022-08-25T16:55:27;100080.19;;;32.31
61189;BMP280;47054;39.716;2.904;2022-08-25T16:58:15;100066.22;;;32.29
61189;BMP280;47054;39.716;2.904;2022-08-25T17:01:08;100067.69;;;32.30
61189;BMP280;47054;39.716;2.904;2022-08-25T17:03:56;100063.94;;;32.27
61189;BMP280;47054;39.716;2.904;2022-08-25T17:06:42;100056.22;;;32.26
61189;BMP280;47054;39.716;2.904;2022-08-25T17:09:27;100049.66;;;32.23
61189;BMP280;47054;39.716;2.904;2022-08-25T17:12:12;100043.41;;;32.23
61189;BMP280;47054;39.716;2.904;2022-08-25T17:14:58;100042.69;;;32.22
61189;BMP280;47054;39.716;2.904;2022-08-25T17:17:43;100047.97;;;32.26
61189;BMP280;47054;39.716;2.904;2022-08-25T17:20:28;100045.22;;;32.26